TimeEDT,TemperatureF,Dew PointF,Humidity,Sea Level PressureIn,VisibilityMPH,Wind Direction,Wind SpeedMPH,Gust SpeedMPH,PrecipitationIn,Events,Conditions,WindDirDegrees,DateUTC
12:15 AM,69.4,57.2,65,30.02,10.0,SSE,8.1,-,N/A,,Clear,160,2012-03-20 04:15:00
12:34 AM,68.9,57.2,66,30.02,10.0,SSE,5.8,-,N/A,,Clear,150,2012-03-20 04:34:00
12:54 AM,68.0,57.2,68,30.02,10.0,SSE,6.9,-,N/A,,Clear,160,2012-03-20 04:54:00
1:14 AM,67.5,57.2,70,30.02,10.0,South,6.9,-,N/A,,Clear,170,2012-03-20 05:14:00
1:34 AM,66.7,57.2,71,30.02,10.0,SSE,6.9,-,N/A,,Clear,160,2012-03-20 05:34:00
1:55 AM,68.0,57.2,68,30.02,10.0,SSE,6.9,-,N/A,,Clear,160,2012-03-20 05:55:00
2:14 AM,67.5,57.0,69,30.02,10.0,SSE,8.1,-,N/A,,Clear,160,2012-03-20 06:14:00
2:34 AM,67.1,57.0,70,30.02,10.0,South,8.1,-,N/A,,Clear,170,2012-03-20 06:34:00
2:55 AM,65.1,56.8,75,30.03,10.0,South,6.9,-,N/A,,Clear,180,2012-03-20 06:55:00
3:14 AM,64.8,56.7,75,30.03,10.0,South,6.9,-,N/A,,Clear,180,2012-03-20 07:14:00
3:34 AM,63.7,56.7,78,30.03,10.0,South,6.9,-,N/A,,Clear,190,2012-03-20 07:34:00
3:54 AM,63.1,56.5,79,30.03,10.0,South,4.6,-,N/A,,Clear,170,2012-03-20 07:54:00
4:14 AM,62.6,56.5,80,30.04,10.0,South,4.6,-,N/A,,Clear,190,2012-03-20 08:14:00
4:35 AM,61.9,56.5,82,30.04,10.0,South,3.5,-,N/A,,Clear,180,2012-03-20 08:35:00
4:54 AM,62.4,56.3,80,30.05,10.0,South,3.5,-,N/A,,Clear,170,2012-03-20 08:54:00
5:14 AM,61.5,56.3,83,30.05,10.0,Calm,Calm,-,N/A,,Clear,0,2012-03-20 09:14:00
5:35 AM,61.2,56.1,83,30.06,10.0,Calm,Calm,-,N/A,,Clear,0,2012-03-20 09:35:00
5:54 AM,63.3,56.3,78,30.06,10.0,Calm,Calm,-,N/A,,Clear,0,2012-03-20 09:54:00
6:14 AM,62.4,55.9,79,30.06,10.0,Calm,Calm,-,N/A,,Clear,0,2012-03-20 10:14:00
6:34 AM,62.6,55.9,79,30.06,10.0,SE,3.5,-,N/A,,Clear,140,2012-03-20 10:34:00
6:54 AM,60.1,55.0,83,30.07,10.0,Calm,Calm,-,N/A,,Clear,0,2012-03-20 10:54:00
7:15 AM,59.4,54.1,83,30.07,10.0,ESE,3.5,-,N/A,,Clear,120,2012-03-20 11:15:00
7:34 AM,60.8,54.9,81,30.08,10.0,Calm,Calm,-,N/A,,Clear,0,2012-03-20 11:34:00
7:54 AM,60.8,54.9,81,30.09,10.0,Calm,Calm,-,N/A,,Clear,0,2012-03-20 11:54:00
8:15 AM,61.3,55.4,81,30.10,10.0,SE,3.5,-,N/A,,Clear,140,2012-03-20 12:15:00
8:34 AM,63.0,55.4,76,30.10,10.0,Calm,Calm,-,N/A,,Clear,0,2012-03-20 12:34:00
8:54 AM,63.1,56.5,79,30.10,10.0,Calm,Calm,-,N/A,,Clear,0,2012-03-20 12:54:00
9:14 AM,64.9,55.8,72,30.11,10.0,Calm,Calm,-,N/A,,Clear,0,2012-03-20 13:14:00
9:34 AM,66.7,56.5,70,30.11,10.0,SSE,3.5,-,N/A,,Clear,160,2012-03-20 13:34:00
9:55 AM,68.5,56.5,65,30.12,10.0,SSE,8.1,-,N/A,,Clear,160,2012-03-20 13:55:00
10:14 AM,70.2,56.8,63,30.12,10.0,South,9.2,-,N/A,,Clear,170,2012-03-20 14:14:00
10:34 AM,69.8,57.2,64,30.12,10.0,South,6.9,-,N/A,,Clear,170,2012-03-20 14:34:00
10:55 AM,70.7,57.6,63,30.12,10.0,SSE,8.1,-,N/A,,Clear,160,2012-03-20 14:55:00
11:14 AM,72.7,57.9,60,30.13,10.0,South,10.4,-,N/A,,Clear,170,2012-03-20 15:14:00
11:34 AM,74.3,58.6,58,30.13,10.0,South,8.1,-,N/A,,Clear,170,2012-03-20 15:34:00
11:55 AM,75.2,59.0,57,30.12,10.0,South,10.4,-,N/A,,Clear,180,2012-03-20 15:55:00
12:14 PM,76.5,59.9,56,30.12,10.0,South,11.5,-,N/A,,Clear,180,2012-03-20 16:14:00
12:34 PM,77.2,60.1,55,30.11,10.0,South,9.2,-,N/A,,Clear,190,2012-03-20 16:34:00
12:55 PM,76.3,59.9,57,30.11,10.0,South,9.2,16.1,N/A,,Clear,190,2012-03-20 16:55:00
1:14 PM,77.0,59.9,55,30.11,10.0,South,11.5,18.4,N/A,,Clear,180,2012-03-20 17:14:00
1:35 PM,77.9,59.4,53,30.11,10.0,South,13.8,18.4,N/A,,Clear,180,2012-03-20 17:35:00
2:14 PM,80.6,57.2,45,30.10,10.0,SSW,11.5,20.7,N/A,,Clear,200,2012-03-20 18:14:00
2:35 PM,81.0,57.0,44,30.09,10.0,SSW,15.0,23.0,N/A,,Clear,200,2012-03-20 18:35:00
2:54 PM,81.3,57.7,44,30.08,10.0,South,16.1,-,N/A,,Clear,170,2012-03-20 18:54:00
3:14 PM,81.0,57.0,44,30.08,10.0,South,16.1,21.9,N/A,,Scattered Clouds,180,2012-03-20 19:14:00
3:54 PM,81.7,56.5,42,30.07,10.0,South,12.7,16.1,N/A,,Scattered Clouds,170,2012-03-20 19:54:00
4:14 PM,81.5,55.6,41,30.06,10.0,South,16.1,20.7,N/A,,Clear,190,2012-03-20 20:14:00
4:34 PM,81.5,55.4,41,30.06,10.0,South,18.4,23.0,N/A,,Clear,180,2012-03-20 20:34:00
4:54 PM,81.5,55.8,41,30.06,10.0,SSE,10.4,20.7,N/A,,Clear,160,2012-03-20 20:54:00
5:15 PM,81.1,55.2,41,30.05,10.0,South,17.3,-,N/A,,Clear,190,2012-03-20 21:15:00
5:34 PM,81.0,55.8,42,30.05,10.0,South,15.0,18.4,N/A,,Clear,170,2012-03-20 21:34:00
5:54 PM,80.6,56.1,43,30.05,10.0,South,9.2,-,N/A,,Clear,190,2012-03-20 21:54:00
6:15 PM,80.4,55.4,42,30.05,10.0,South,11.5,-,N/A,,Clear,180,2012-03-20 22:15:00
6:34 PM,80.1,55.0,42,30.05,10.0,South,11.5,17.3,N/A,,Clear,170,2012-03-20 22:34:00
6:54 PM,79.2,55.8,44,30.05,10.0,South,8.1,-,N/A,,Clear,170,2012-03-20 22:54:00
7:34 PM,78.1,55.8,46,30.05,10.0,SE,4.6,-,N/A,,Clear,140,2012-03-20 23:34:00
7:54 PM,77.0,55.9,48,30.05,10.0,SE,4.6,-,N/A,,Clear,140,2012-03-20 23:54:00
8:14 PM,75.7,55.8,50,30.06,10.0,SE,4.6,-,N/A,,Clear,140,2012-03-21 00:14:00
8:34 PM,75.0,55.8,51,30.06,10.0,SE,3.5,-,N/A,,Clear,130,2012-03-21 00:34:00
8:55 PM,74.7,55.4,51,30.07,10.0,SE,3.5,-,N/A,,Clear,130,2012-03-21 00:55:00
9:14 PM,73.2,55.4,54,30.08,10.0,ESE,3.5,-,N/A,,Clear,120,2012-03-21 01:14:00
9:34 PM,72.3,55.2,55,30.08,10.0,Calm,Calm,-,N/A,,Clear,0,2012-03-21 01:34:00
9:54 PM,72.3,55.6,56,30.09,10.0,SE,3.5,-,N/A,,Clear,140,2012-03-21 01:54:00
10:14 PM,71.6,55.9,58,30.10,10.0,SE,3.5,-,N/A,,Clear,130,2012-03-21 02:14:00
10:35 PM,71.4,56.3,59,30.10,10.0,SE,4.6,-,N/A,,Clear,130,2012-03-21 02:35:00
10:54 PM,71.6,56.3,58,30.11,10.0,SE,5.8,-,N/A,,Clear,130,2012-03-21 02:54:00
11:15 PM,71.1,56.3,60,30.11,10.0,SE,6.9,-,N/A,,Clear,130,2012-03-21 03:15:00
11:34 PM,70.9,56.3,60,30.11,10.0,SE,5.8,-,N/A,,Clear,130,2012-03-21 03:34:00
11:54 PM,70.3,56.3,61,30.12,10.0,SE,6.9,-,N/A,,Clear,130,2012-03-21 03:54:00